sensor_id;sensor_type;location;lat;lon;timestamp;P1;durP1;ratioP1;P2;durP2;ratioP2
61204;SDS011;47068;55.780;37.520;2023-06-24T00:00:56;11.25;;;4.47;;
61204;SDS011;47068;55.780;37.520;2023-06-24T00:03:22;13.38;;;4.13;;
61204;SDS011;47068;55.780;37.520;2023-06-24T00:05:47;8.65;;;3.67;;
61204;SDS011;47068;55.780;37.520;2023-06-24T00:08:18;7.93;;;3.28;;
61204;SDS011;47068;55.780;37.520;2023-06-24T00:10:47;6.90;;;3.45;;
61204;SDS011;47068;55.780;37.520;2023-06-24T00:13:13;7.63;;;3.70;;
61204;SDS011;47068;55.780;37.520;2023-06-24T00:15:39;9.75;;;3.90;;
61204;SDS011;47068;55.780;37.520;2023-06-24T00:18:09;7.55;;;3.67;;
61204;SDS011;47068;55.780;37.520;2023-06-24T00:20:37;8.55;;;3.97;;
61204;SDS011;47068;55.780;37.520;2023-06-24T00:23:03;7.28;;;3.70;;
61204;SDS011;47068;55.780;37.520;2023-06-24T00:25:29;7.05;;;3.60;;
61204;SDS011;47068;55.780;37.520;2023-06-24T00:27:55;6.35;;;3.20;;
61204;SDS011;47068;55.780;37.520;2023-06-24T00:30:21;9.85;;;4.07;;
61204;SDS011;47068;55.780;37.520;2023-06-24T00:32:48;5.60;;;3.15;;
61204;SDS011;47068;55.780;37.520;2023-06-24T00:35:13;5.40;;;2.85;;
61204;SDS011;47068;55.780;37.520;2023-06-24T00:37:39;7.28;;;3.00;;
61204;SDS011;47068;55.780;37.520;2023-06-24T00:40:05;8.20;;;3.78;;
61204;SDS011;47068;55.780;37.520;2023-06-24T00:42:31;7.05;;;3.03;;
61204;SDS011;47068;55.780;37.520;2023-06-24T00:44:57;7.40;;;3.05;;
61204;SDS011;47068;55.780;37.520;2023-06-24T00:47:23;6.15;;;2.92;;
61204;SDS011;47068;55.780;37.520;2023-06-24T00:49:49;5.00;;;2.42;;
61204;SDS011;47068;55.780;37.520;2023-06-24T00:52:15;6.90;;;2.72;;
61204;SDS011;47068;55.780;37.520;2023-06-24T00:54:42;7.05;;;3.47;;
61204;SDS011;47068;55.780;37.520;2023-06-24T00:57:08;6.55;;;3.45;;
61204;SDS011;47068;55.780;37.520;2023-06-24T00:59:34;7.03;;;3.30;;
61204;SDS011;47068;55.780;37.520;2023-06-24T01:02:01;6.47;;;3.15;;
61204;SDS011;47068;55.780;37.520;2023-06-24T01:04:27;6.32;;;3.28;;
61204;SDS011;47068;55.780;37.520;2023-06-24T01:06:53;6.43;;;3.15;;
61204;SDS011;47068;55.780;37.520;2023-06-24T01:09:19;5.55;;;3.10;;
61204;SDS011;47068;55.780;37.520;2023-06-24T01:14:11;5.78;;;3.05;;
61204;SDS011;47068;55.780;37.520;2023-06-24T01:16:42;7.45;;;3.55;;
61204;SDS011;47068;55.780;37.520;2023-06-24T01:19:23;8.18;;;3.30;;
61204;SDS011;47068;55.780;37.520;2023-06-24T01:33:09;5.53;;;3.08;;
61204;SDS011;47068;55.780;37.520;2023-06-24T01:35:38;5.32;;;2.97;;
61204;SDS011;47068;55.780;37.520;2023-06-24T01:38:10;7.90;;;3.13;;
61204;SDS011;47068;55.780;37.520;2023-06-24T01:40:57;11.02;;;3.60;;
61204;SDS011;47068;55.780;37.520;2023-06-24T01:43:23;8.73;;;2.53;;
61204;SDS011;47068;55.780;37.520;2023-06-24T01:45:51;4.55;;;2.63;;
61204;SDS011;47068;55.780;37.520;2023-06-24T01:48:28;6.88;;;2.63;;
61204;SDS011;47068;55.780;37.520;2023-06-24T01:51:06;4.68;;;2.67;;
61204;SDS011;47068;55.780;37.520;2023-06-24T01:53:34;6.40;;;3.03;;
61204;SDS011;47068;55.780;37.520;2023-06-24T01:56:07;5.00;;;2.45;;
61204;SDS011;47068;55.780;37.520;2023-06-24T01:58:35;6.07;;;2.60;;
61204;SDS011;47068;55.780;37.520;2023-06-24T02:01:02;4.05;;;2.00;;
61204;SDS011;47068;55.780;37.520;2023-06-24T02:03:29;6.85;;;2.50;;
61204;SDS011;47068;55.780;37.520;2023-06-24T02:05:57;7.60;;;2.40;;
61204;SDS011;47068;55.780;37.520;2023-06-24T02:08:24;6.45;;;2.20;;
61204;SDS011;47068;55.780;37.520;2023-06-24T02:10:54;4.88;;;2.33;;
61204;SDS011;47068;55.780;37.520;2023-06-24T02:13:21;5.93;;;2.10;;
61204;SDS011;47068;55.780;37.520;2023-06-24T02:15:48;3.67;;;1.90;;
61204;SDS011;47068;55.780;37.520;2023-06-24T02:18:16;4.55;;;2.10;;
61204;SDS011;47068;55.780;37.520;2023-06-24T02:20:45;3.47;;;1.83;;
61204;SDS011;47068;55.780;37.520;2023-06-24T02:23:13;2.67;;;1.42;;
61204;SDS011;47068;55.780;37.520;2023-06-24T02:25:38;2.15;;;1.10;;
61204;SDS011;47068;55.780;37.520;2023-06-24T02:28:05;1.85;;;0.90;;
61204;SDS011;47068;55.780;37.520;2023-06-24T02:30:34;2.00;;;0.90;;
61204;SDS011;47068;55.780;37.520;2023-06-24T02:33:01;2.22;;;1.00;;
61204;SDS011;47068;55.780;37.520;2023-06-24T02:35:27;1.27;;;0.70;;
61204;SDS011;47068;55.780;37.520;2023-06-24T02:37:52;3.65;;;1.02;;
61204;SDS011;47068;55.780;37.520;2023-06-24T02:40:18;1.65;;;0.80;;
61204;SDS011;47068;55.780;37.520;2023-06-24T02:42:43;2.30;;;0.82;;
61204;SDS011;47068;55.780;37.520;2023-06-24T02:45:09;1.75;;;0.80;;
61204;SDS011;47068;55.780;37.520;2023-06-24T02:50:02;1.73;;;0.80;;
61204;SDS011;47068;55.780;37.520;2023-06-24T02:52:32;1.83;;;0.85;;
61204;SDS011;47068;55.780;37.520;2023-06-24T02:55:01;1.92;;;0.75;;
61204;SDS011;47068;55.780;37.520;2023-06-24T02:57:27;1.88;;;0.77;;
61204;SDS011;47068;55.780;37.520;2023-06-24T03:02:18;1.60;;;0.50;;
61204;SDS011;47068;55.780;37.520;2023-06-24T03:04:44;0.95;;;0.60;;
61204;SDS011;47068;55.780;37.520;2023-06-24T03:07:10;2.10;;;0.75;;
61204;SDS011;47068;55.780;37.520;2023-06-24T03:09:36;1.70;;;0.80;;
61204;SDS011;47068;55.780;37.520;2023-06-24T03:12:02;0.85;;;0.45;;
61204;SDS011;47068;55.780;37.520;2023-06-24T03:14:28;1.48;;;0.60;;
61204;SDS011;47068;55.780;37.520;2023-06-24T03:16:54;1.13;;;0.63;;
61204;SDS011;47068;55.780;37.520;2023-06-24T03:19:19;1.30;;;0.60;;
61204;SDS011;47068;55.780;37.520;2023-06-24T03:21:45;1.02;;;0.60;;
61204;SDS011;47068;55.780;37.520;2023-06-24T03:24:10;1.02;;;0.52;;
61204;SDS011;47068;55.780;37.520;2023-06-24T03:26:36;0.90;;;0.50;;
61204;SDS011;47068;55.780;37.520;2023-06-24T03:29:03;2.33;;;0.70;;
61204;SDS011;47068;55.780;37.520;2023-06-24T03:31:29;1.10;;;0.60;;
61204;SDS011;47068;55.780;37.520;2023-06-24T03:33:54;1.65;;;0.60;;
61204;SDS011;47068;55.780;37.520;2023-06-24T03:36:20;0.80;;;0.40;;
61204;SDS011;47068;55.780;37.520;2023-06-24T03:38:46;2.08;;;0.50;;
61204;SDS011;47068;55.780;37.520;2023-06-24T03:41:11;2.25;;;0.70;;
61204;SDS011;47068;55.780;37.520;2023-06-24T03:43:37;1.15;;;0.50;;
61204;SDS011;47068;55.780;37.520;2023-06-24T03:46:02;1.75;;;0.60;;
61204;SDS011;47068;55.780;37.520;2023-06-24T03:48:28;1.67;;;0.55;;
61204;SDS011;47068;55.780;37.520;2023-06-24T03:50:53;1.77;;;0.50;;
61204;SDS011;47068;55.780;37.520;2023-06-24T03:53:19;0.77;;;0.40;;
61204;SDS011;47068;55.780;37.520;2023-06-24T03:55:44;1.30;;;0.52;;
61204;SDS011;47068;55.780;37.520;2023-06-24T03:58:10;0.75;;;0.40;;
61204;SDS011;47068;55.780;37.520;2023-06-24T04:00:35;1.10;;;0.50;;
61204;SDS011;47068;55.780;37.520;2023-06-24T04:03:05;1.13;;;0.60;;
61204;SDS011;47068;55.780;37.520;2023-06-24T04:05:32;1.23;;;0.65;;
61204;SDS011;47068;55.780;37.520;2023-06-24T04:10:24;1.17;;;0.52;;
61204;SDS011;47068;55.780;37.520;2023-06-24T04:12:49;1.42;;;0.50;;
61204;SDS011;47068;55.780;37.520;2023-06-24T04:15:15;1.13;;;0.50;;
61204;SDS011;47068;55.780;37.520;2023-06-24T04:17:40;2.30;;;1.60;;
61204;SDS011;47068;55.780;37.520;2023-06-24T04:20:06;1.15;;;0.60;;
61204;SDS011;47068;55.780;37.520;2023-06-24T04:22:37;0.70;;;0.40;;
61204;SDS011;47068;55.780;37.520;2023-06-24T04:25:07;1.27;;;0.50;;
61204;SDS011;47068;55.780;37.520;2023-06-24T04:27:33;1.35;;;0.68;;
61204;SDS011;47068;55.780;37.520;2023-06-24T04:30:00;1.30;;;0.60;;
61204;SDS011;47068;55.780;37.520;2023-06-24T04:32:27;1.17;;;0.52;;
61204;SDS011;47068;55.780;37.520;2023-06-24T04:34:52;1.33;;;0.60;;
61204;SDS011;47068;55.780;37.520;2023-06-24T04:37:18;2.00;;;0.63;;
61204;SDS011;47068;55.780;37.520;2023-06-24T04:39:44;1.25;;;0.70;;
61204;SDS011;47068;55.780;37.520;2023-06-24T04:42:09;4.95;;;0.82;;
61204;SDS011;47068;55.780;37.520;2023-06-24T04:44:36;1.17;;;0.47;;
61204;SDS011;47068;55.780;37.520;2023-06-24T04:47:01;1.20;;;0.70;;
61204;SDS011;47068;55.780;37.520;2023-06-24T04:49:27;0.65;;;0.38;;
61204;SDS011;47068;55.780;37.520;2023-06-24T04:51:53;1.60;;;0.60;;
61204;SDS011;47068;55.780;37.520;2023-06-24T04:54:18;1.33;;;0.50;;
61204;SDS011;47068;55.780;37.520;2023-06-24T04:56:44;0.98;;;0.50;;
61204;SDS011;47068;55.780;37.520;2023-06-24T05:01:35;1.45;;;0.70;;
61204;SDS011;47068;55.780;37.520;2023-06-24T05:04:01;1.20;;;0.45;;
61204;SDS011;47068;55.780;37.520;2023-06-24T05:06:26;0.98;;;0.43;;
61204;SDS011;47068;55.780;37.520;2023-06-24T05:08:52;2.67;;;0.60;;
61204;SDS011;47068;55.780;37.520;2023-06-24T05:11:17;2.53;;;0.80;;
61204;SDS011;47068;55.780;37.520;2023-06-24T05:13:43;1.20;;;0.52;;
61204;SDS011;47068;55.780;37.520;2023-06-24T05:16:08;1.30;;;0.57;;
61204;SDS011;47068;55.780;37.520;2023-06-24T05:18:34;1.60;;;0.60;;
61204;SDS011;47068;55.780;37.520;2023-06-24T05:20:59;0.98;;;0.50;;
61204;SDS011;47068;55.780;37.520;2023-06-24T05:23:25;1.15;;;0.70;;
61204;SDS011;47068;55.780;37.520;2023-06-24T05:25:50;2.13;;;0.98;;
61204;SDS011;47068;55.780;37.520;2023-06-24T05:28:15;3.63;;;0.63;;
61204;SDS011;47068;55.780;37.520;2023-06-24T05:30:41;3.42;;;1.10;;
61204;SDS011;47068;55.780;37.520;2023-06-24T05:33:06;2.25;;;1.00;;
61204;SDS011;47068;55.780;37.520;2023-06-24T05:35:32;2.67;;;0.77;;
61204;SDS011;47068;55.780;37.520;2023-06-24T05:40:23;3.85;;;0.90;;
61204;SDS011;47068;55.780;37.520;2023-06-24T05:42:49;1.45;;;0.57;;
61204;SDS011;47068;55.780;37.520;2023-06-24T05:45:14;3.47;;;1.05;;
61204;SDS011;47068;55.780;37.520;2023-06-24T05:47:40;1.85;;;0.70;;
61204;SDS011;47068;55.780;37.520;2023-06-24T05:52:31;2.35;;;0.63;;
61204;SDS011;47068;55.780;37.520;2023-06-24T05:54:57;2.85;;;0.93;;
61204;SDS011;47068;55.780;37.520;2023-06-24T05:57:22;2.38;;;0.77;;
61204;SDS011;47068;55.780;37.520;2023-06-24T05:59:48;3.45;;;0.90;;
61204;SDS011;47068;55.780;37.520;2023-06-24T06:02:13;4.65;;;1.10;;
61204;SDS011;47068;55.780;37.520;2023-06-24T06:04:39;1.60;;;0.93;;
61204;SDS011;47068;55.780;37.520;2023-06-24T06:07:04;2.30;;;0.85;;
61204;SDS011;47068;55.780;37.520;2023-06-24T06:09:30;1.73;;;0.90;;
61204;SDS011;47068;55.780;37.520;2023-06-24T06:11:55;6.45;;;1.05;;
61204;SDS011;47068;55.780;37.520;2023-06-24T06:14:21;2.35;;;0.90;;
61204;SDS011;47068;55.780;37.520;2023-06-24T06:16:46;3.55;;;1.13;;
61204;SDS011;47068;55.780;37.520;2023-06-24T06:19:12;2.00;;;0.77;;
61204;SDS011;47068;55.780;37.520;2023-06-24T06:21:37;1.63;;;0.77;;
61204;SDS011;47068;55.780;37.520;2023-06-24T06:24:03;3.40;;;0.95;;
61204;SDS011;47068;55.780;37.520;2023-06-24T06:28:54;1.48;;;0.70;;
61204;SDS011;47068;55.780;37.520;2023-06-24T06:31:19;3.20;;;1.02;;
61204;SDS011;47068;55.780;37.520;2023-06-24T06:33:46;5.38;;;1.27;;
61204;SDS011;47068;55.780;37.520;2023-06-24T06:38:38;1.30;;;0.70;;
61204;SDS011;47068;55.780;37.520;2023-06-24T06:41:05;4.53;;;2.70;;
61204;SDS011;47068;55.780;37.520;2023-06-24T06:43:30;1.17;;;0.80;;
61204;SDS011;47068;55.780;37.520;2023-06-24T06:45:56;2.38;;;0.95;;
61204;SDS011;47068;55.780;37.520;2023-06-24T06:48:21;4.40;;;1.10;;
61204;SDS011;47068;55.780;37.520;2023-06-24T06:50:47;1.40;;;0.73;;
61204;SDS011;47068;55.780;37.520;2023-06-24T06:53:12;1.75;;;0.93;;
61204;SDS011;47068;55.780;37.520;2023-06-24T06:55:37;1.35;;;0.63;;
61204;SDS011;47068;55.780;37.520;2023-06-24T06:58:04;2.03;;;0.80;;
61204;SDS011;47068;55.780;37.520;2023-06-24T07:00:30;2.47;;;1.00;;
61204;SDS011;47068;55.780;37.520;2023-06-24T07:02:56;2.72;;;1.13;;
61204;SDS011;47068;55.780;37.520;2023-06-24T07:05:21;2.33;;;1.10;;
61204;SDS011;47068;55.780;37.520;2023-06-24T07:07:47;2.10;;;0.80;;
61204;SDS011;47068;55.780;37.520;2023-06-24T07:10:15;2.08;;;0.80;;
61204;SDS011;47068;55.780;37.520;2023-06-24T07:12:42;3.10;;;0.77;;
61204;SDS011;47068;55.780;37.520;2023-06-24T07:15:08;2.95;;;0.90;;
61204;SDS011;47068;55.780;37.520;2023-06-24T07:17:33;1.73;;;0.80;;
61204;SDS011;47068;55.780;37.520;2023-06-24T07:19:59;2.33;;;1.15;;
61204;SDS011;47068;55.780;37.520;2023-06-24T07:22:24;2.15;;;1.10;;
61204;SDS011;47068;55.780;37.520;2023-06-24T07:24:50;2.40;;;0.77;;
61204;SDS011;47068;55.780;37.520;2023-06-24T07:27:15;2.35;;;0.95;;
61204;SDS011;47068;55.780;37.520;2023-06-24T07:29:41;1.75;;;0.70;;
61204;SDS011;47068;55.780;37.520;2023-06-24T07:32:06;1.80;;;0.80;;
61204;SDS011;47068;55.780;37.520;2023-06-24T07:34:32;2.53;;;1.00;;
61204;SDS011;47068;55.780;37.520;2023-06-24T07:36:58;4.57;;;1.02;;
61204;SDS011;47068;55.780;37.520;2023-06-24T07:39:23;2.30;;;0.98;;
61204;SDS011;47068;55.780;37.520;2023-06-24T07:41:49;3.47;;;0.90;;
61204;SDS011;47068;55.780;37.520;2023-06-24T07:44:14;1.73;;;0.80;;
61204;SDS011;47068;55.780;37.520;2023-06-24T07:46:40;1.50;;;0.88;;
61204;SDS011;47068;55.780;37.520;2023-06-24T07:49:05;1.50;;;0.80;;
61204;SDS011;47068;55.780;37.520;2023-06-24T07:51:31;4.80;;;1.58;;
61204;SDS011;47068;55.780;37.520;2023-06-24T07:53:56;4.95;;;2.03;;
61204;SDS011;47068;55.780;37.520;2023-06-24T07:56:22;3.03;;;1.20;;
61204;SDS011;47068;55.780;37.520;2023-06-24T07:58:47;2.55;;;1.15;;
61204;SDS011;47068;55.780;37.520;2023-06-24T08:01:15;2.83;;;1.25;;
61204;SDS011;47068;55.780;37.520;2023-06-24T08:03:41;2.33;;;1.00;;
61204;SDS011;47068;55.780;37.520;2023-06-24T08:06:06;2.22;;;1.20;;
61204;SDS011;47068;55.780;37.520;2023-06-24T08:08:32;3.88;;;1.60;;
61204;SDS011;47068;55.780;37.520;2023-06-24T08:10:58;2.55;;;1.38;;
61204;SDS011;47068;55.780;37.520;2023-06-24T08:13:23;3.85;;;1.35;;
61204;SDS011;47068;55.780;37.520;2023-06-24T08:15:49;2.17;;;1.13;;
61204;SDS011;47068;55.780;37.520;2023-06-24T08:18:15;3.08;;;1.20;;
61204;SDS011;47068;55.780;37.520;2023-06-24T08:20:40;2.13;;;1.08;;
61204;SDS011;47068;55.780;37.520;2023-06-24T08:25:31;2.85;;;1.00;;
61204;SDS011;47068;55.780;37.520;2023-06-24T08:27:57;2.33;;;1.00;;
61204;SDS011;47068;55.780;37.520;2023-06-24T08:30:23;3.95;;;1.20;;
61204;SDS011;47068;55.780;37.520;2023-06-24T08:32:48;3.08;;;1.20;;
61204;SDS011;47068;55.780;37.520;2023-06-24T08:35:14;3.15;;;1.48;;
61204;SDS011;47068;55.780;37.520;2023-06-24T08:37:39;2.30;;;1.08;;
61204;SDS011;47068;55.780;37.520;2023-06-24T08:40:05;3.03;;;1.35;;
61204;SDS011;47068;55.780;37.520;2023-06-24T08:42:31;2.80;;;1.15;;
61204;SDS011;47068;55.780;37.520;2023-06-24T08:44:57;3.28;;;1.25;;
61204;SDS011;47068;55.780;37.520;2023-06-24T08:47:25;2.70;;;1.30;;
61204;SDS011;47068;55.780;37.520;2023-06-24T08:49:55;2.85;;;1.40;;
61204;SDS011;47068;55.780;37.520;2023-06-24T08:52:29;3.20;;;1.40;;
61204;SDS011;47068;55.780;37.520;2023-06-24T08:54:57;2.53;;;1.30;;
61204;SDS011;47068;55.780;37.520;2023-06-24T08:57:24;2.72;;;1.50;;
61204;SDS011;47068;55.780;37.520;2023-06-24T08:59:50;8.65;;;1.58;;
61204;SDS011;47068;55.780;37.520;2023-06-24T09:02:15;3.65;;;1.67;;
61204;SDS011;47068;55.780;37.520;2023-06-24T09:04:41;2.75;;;1.55;;
61204;SDS011;47068;55.780;37.520;2023-06-24T09:07:06;3.38;;;1.23;;
61204;SDS011;47068;55.780;37.520;2023-06-24T09:09:32;2.78;;;1.40;;
61204;SDS011;47068;55.780;37.520;2023-06-24T09:11:58;3.53;;;1.58;;
61204;SDS011;47068;55.780;37.520;2023-06-24T09:14:25;2.97;;;1.35;;
61204;SDS011;47068;55.780;37.520;2023-06-24T09:16:55;2.58;;;1.27;;
61204;SDS011;47068;55.780;37.520;2023-06-24T09:19:29;4.45;;;1.90;;
61204;SDS011;47068;55.780;37.520;2023-06-24T09:22:06;2.85;;;1.60;;
61204;SDS011;47068;55.780;37.520;2023-06-24T09:24:34;3.92;;;1.90;;
61204;SDS011;47068;55.780;37.520;2023-06-24T09:27:00;4.95;;;1.83;;
61204;SDS011;47068;55.780;37.520;2023-06-24T09:29:26;4.72;;;2.08;;
61204;SDS011;47068;55.780;37.520;2023-06-24T09:31:52;11.07;;;2.60;;
61204;SDS011;47068;55.780;37.520;2023-06-24T09:34:19;3.88;;;1.92;;
61204;SDS011;47068;55.780;37.520;2023-06-24T09:36:45;5.25;;;2.55;;
61204;SDS011;47068;55.780;37.520;2023-06-24T09:39:17;7.53;;;2.63;;
61204;SDS011;47068;55.780;37.520;2023-06-24T09:41:42;5.40;;;2.50;;
61204;SDS011;47068;55.780;37.520;2023-06-24T09:44:08;6.68;;;2.72;;
61204;SDS011;47068;55.780;37.520;2023-06-24T09:46:37;5.10;;;2.53;;
61204;SDS011;47068;55.780;37.520;2023-06-24T09:49:06;4.82;;;2.88;;
61204;SDS011;47068;55.780;37.520;2023-06-24T09:51:36;5.05;;;2.75;;
61204;SDS011;47068;55.780;37.520;2023-06-24T09:54:05;5.00;;;2.70;;
61204;SDS011;47068;55.780;37.520;2023-06-24T09:56:31;4.88;;;2.67;;
61204;SDS011;47068;55.780;37.520;2023-06-24T09:59:00;4.75;;;2.38;;
61204;SDS011;47068;55.780;37.520;2023-06-24T10:03:52;6.07;;;3.17;;
61204;SDS011;47068;55.780;37.520;2023-06-24T10:06:18;5.75;;;2.90;;
61204;SDS011;47068;55.780;37.520;2023-06-24T10:08:44;5.47;;;3.13;;
61204;SDS011;47068;55.780;37.520;2023-06-24T10:11:10;5.38;;;2.92;;
61204;SDS011;47068;55.780;37.520;2023-06-24T10:13:35;7.10;;;2.97;;
61204;SDS011;47068;55.780;37.520;2023-06-24T10:16:01;3.95;;;2.15;;
61204;SDS011;47068;55.780;37.520;2023-06-24T10:21:08;8.20;;;3.40;;
61204;SDS011;47068;55.780;37.520;2023-06-24T10:26:21;6.15;;;3.10;;
61204;SDS011;47068;55.780;37.520;2023-06-24T10:34:20;5.60;;;2.42;;
61204;SDS011;47068;55.780;37.520;2023-06-24T10:36:54;6.18;;;2.88;;
61204;SDS011;47068;55.780;37.520;2023-06-24T10:40:02;4.82;;;2.70;;
61204;SDS011;47068;55.780;37.520;2023-06-24T10:47:31;4.00;;;2.20;;
61204;SDS011;47068;55.780;37.520;2023-06-24T10:49:57;3.50;;;2.03;;
61204;SDS011;47068;55.780;37.520;2023-06-24T10:52:23;4.60;;;2.30;;
61204;SDS011;47068;55.780;37.520;2023-06-24T10:54:49;4.95;;;2.55;;
61204;SDS011;47068;55.780;37.520;2023-06-24T10:57:16;5.13;;;2.53;;
61204;SDS011;47068;55.780;37.520;2023-06-24T10:59:47;6.07;;;2.35;;
61204;SDS011;47068;55.780;37.520;2023-06-24T11:02:17;6.40;;;2.35;;
61204;SDS011;47068;55.780;37.520;2023-06-24T11:04:51;6.40;;;2.42;;
61204;SDS011;47068;55.780;37.520;2023-06-24T11:07:23;4.78;;;2.42;;
61204;SDS011;47068;55.780;37.520;2023-06-24T11:09:50;4.47;;;1.92;;
61204;SDS011;47068;55.780;37.520;2023-06-24T11:12:17;4.97;;;2.70;;
61204;SDS011;47068;55.780;37.520;2023-06-24T11:14:44;4.65;;;2.42;;
61204;SDS011;47068;55.780;37.520;2023-06-24T11:19:35;3.83;;;2.20;;
61204;SDS011;47068;55.780;37.520;2023-06-24T11:22:05;5.75;;;2.30;;
61204;SDS011;47068;55.780;37.520;2023-06-24T11:24:31;5.32;;;2.38;;
61204;SDS011;47068;55.780;37.520;2023-06-24T11:29:23;6.00;;;2.10;;
61204;SDS011;47068;55.780;37.520;2023-06-24T11:31:49;5.07;;;2.60;;
61204;SDS011;47068;55.780;37.520;2023-06-24T11:34:15;4.07;;;2.10;;
61204;SDS011;47068;55.780;37.520;2023-06-24T11:36:41;5.15;;;2.35;;
61204;SDS011;47068;55.780;37.520;2023-06-24T11:41:32;4.03;;;1.92;;
61204;SDS011;47068;55.780;37.520;2023-06-24T11:46:33;10.73;;;3.97;;
61204;SDS011;47068;55.780;37.520;2023-06-24T11:49:07;3.20;;;1.80;;
61204;SDS011;47068;55.780;37.520;2023-06-24T11:51:33;4.68;;;2.03;;
61204;SDS011;47068;55.780;37.520;2023-06-24T11:54:01;7.00;;;2.67;;
61204;SDS011;47068;55.780;37.520;2023-06-24T11:56:37;3.75;;;1.88;;
61204;SDS011;47068;55.780;37.520;2023-06-24T11:59:07;6.35;;;2.28;;
61204;SDS011;47068;55.780;37.520;2023-06-24T12:01:42;3.97;;;1.92;;
61204;SDS011;47068;55.780;37.520;2023-06-24T12:04:09;3.47;;;1.75;;
61204;SDS011;47068;55.780;37.520;2023-06-24T12:06:41;3.08;;;1.60;;
61204;SDS011;47068;55.780;37.520;2023-06-24T12:09:08;7.45;;;2.35;;
61204;SDS011;47068;55.780;37.520;2023-06-24T12:11:34;3.55;;;1.58;;
61204;SDS011;47068;55.780;37.520;2023-06-24T12:16:24;4.63;;;1.83;;
61204;SDS011;47068;55.780;37.520;2023-06-24T12:18:51;3.92;;;1.90;;
61204;SDS011;47068;55.780;37.520;2023-06-24T12:23:42;4.50;;;1.85;;
61204;SDS011;47068;55.780;37.520;2023-06-24T12:28:33;3.75;;;2.00;;
61204;SDS011;47068;55.780;37.520;2023-06-24T12:33:24;3.58;;;1.83;;
61204;SDS011;47068;55.780;37.520;2023-06-24T12:35:49;3.72;;;1.88;;
61204;SDS011;47068;55.780;37.520;2023-06-24T12:38:15;5.00;;;2.17;;
61204;SDS011;47068;55.780;37.520;2023-06-24T12:40:41;5.18;;;2.30;;
61204;SDS011;47068;55.780;37.520;2023-06-24T12:43:07;3.97;;;1.95;;
61204;SDS011;47068;55.780;37.520;2023-06-24T12:45:32;5.78;;;2.00;;
61204;SDS011;47068;55.780;37.520;2023-06-24T12:47:58;4.95;;;2.03;;
61204;SDS011;47068;55.780;37.520;2023-06-24T12:50:24;5.07;;;2.10;;
61204;SDS011;47068;55.780;37.520;2023-06-24T12:52:51;4.25;;;2.25;;
61204;SDS011;47068;55.780;37.520;2023-06-24T12:55:17;5.53;;;2.42;;
61204;SDS011;47068;55.780;37.520;2023-06-24T12:57:42;5.75;;;1.98;;
61204;SDS011;47068;55.780;37.520;2023-06-24T13:00:09;5.63;;;2.30;;
61204;SDS011;47068;55.780;37.520;2023-06-24T13:02:35;7.03;;;2.17;;
61204;SDS011;47068;55.780;37.520;2023-06-24T13:05:03;4.03;;;2.10;;
61204;SDS011;47068;55.780;37.520;2023-06-24T13:07:29;6.35;;;2.35;;
61204;SDS011;47068;55.780;37.520;2023-06-24T13:12:20;3.88;;;2.00;;
61204;SDS011;47068;55.780;37.520;2023-06-24T13:14:45;4.45;;;2.65;;
61204;SDS011;47068;55.780;37.520;2023-06-24T13:17:11;5.05;;;2.33;;
61204;SDS011;47068;55.780;37.520;2023-06-24T13:22:02;4.03;;;2.28;;
61204;SDS011;47068;55.780;37.520;2023-06-24T13:26:52;4.68;;;2.20;;
61204;SDS011;47068;55.780;37.520;2023-06-24T13:31:45;4.80;;;2.05;;
61204;SDS011;47068;55.780;37.520;2023-06-24T13:34:11;3.85;;;2.03;;
61204;SDS011;47068;55.780;37.520;2023-06-24T13:36:37;3.90;;;1.90;;
61204;SDS011;47068;55.780;37.520;2023-06-24T13:39:03;6.45;;;2.17;;
61204;SDS011;47068;55.780;37.520;2023-06-24T13:41:30;5.72;;;2.30;;
61204;SDS011;47068;55.780;37.520;2023-06-24T13:44:06;3.47;;;1.73;;
61204;SDS011;47068;55.780;37.520;2023-06-24T13:46:32;5.47;;;2.00;;
61204;SDS011;47068;55.780;37.520;2023-06-24T13:48:59;3.80;;;1.80;;
61204;SDS011;47068;55.780;37.520;2023-06-24T13:53:50;6.28;;;1.67;;
61204;SDS011;47068;55.780;37.520;2023-06-24T13:56:18;3.13;;;1.50;;
61204;SDS011;47068;55.780;37.520;2023-06-24T13:58:44;3.67;;;1.88;;
61204;SDS011;47068;55.780;37.520;2023-06-24T14:01:10;4.05;;;2.30;;
61204;SDS011;47068;55.780;37.520;2023-06-24T14:06:02;5.05;;;2.47;;
61204;SDS011;47068;55.780;37.520;2023-06-24T14:08:28;4.78;;;1.80;;
61204;SDS011;47068;55.780;37.520;2023-06-24T14:10:55;7.05;;;1.83;;
61204;SDS011;47068;55.780;37.520;2023-06-24T14:13:21;4.60;;;2.17;;
61204;SDS011;47068;55.780;37.520;2023-06-24T14:18:12;7.82;;;2.70;;
61204;SDS011;47068;55.780;37.520;2023-06-24T14:23:03;5.03;;;2.35;;
61204;SDS011;47068;55.780;37.520;2023-06-24T14:25:29;5.15;;;2.00;;
61204;SDS011;47068;55.780;37.520;2023-06-24T14:30:20;2.90;;;1.65;;
61204;SDS011;47068;55.780;37.520;2023-06-24T14:35:11;4.63;;;1.92;;
61204;SDS011;47068;55.780;37.520;2023-06-24T14:40:03;3.90;;;1.75;;
61204;SDS011;47068;55.780;37.520;2023-06-24T14:42:29;6.22;;;1.85;;
61204;SDS011;47068;55.780;37.520;2023-06-24T14:47:20;3.08;;;1.50;;
61204;SDS011;47068;55.780;37.520;2023-06-24T14:49:45;4.22;;;2.15;;
61204;SDS011;47068;55.780;37.520;2023-06-24T14:54:36;4.80;;;2.20;;
61204;SDS011;47068;55.780;37.520;2023-06-24T14:59:27;3.78;;;1.88;;
61204;SDS011;47068;55.780;37.520;2023-06-24T15:01:53;4.78;;;2.17;;
61204;SDS011;47068;55.780;37.520;2023-06-24T15:06:44;3.65;;;1.80;;
61204;SDS011;47068;55.780;37.520;2023-06-24T15:09:10;5.72;;;2.35;;
61204;SDS011;47068;55.780;37.520;2023-06-24T15:14:01;6.80;;;1.92;;
61204;SDS011;47068;55.780;37.520;2023-06-24T15:18:52;3.78;;;2.05;;
61204;SDS011;47068;55.780;37.520;2023-06-24T15:21:17;4.07;;;2.25;;
61204;SDS011;47068;55.780;37.520;2023-06-24T15:23:44;4.30;;;2.10;;
61204;SDS011;47068;55.780;37.520;2023-06-24T15:28:35;3.92;;;1.73;;
61204;SDS011;47068;55.780;37.520;2023-06-24T15:33:25;7.43;;;2.20;;
61204;SDS011;47068;55.780;37.520;2023-06-24T15:38:17;4.25;;;2.13;;
61204;SDS011;47068;55.780;37.520;2023-06-24T15:43:08;2.78;;;1.77;;
61204;SDS011;47068;55.780;37.520;2023-06-24T15:45:34;3.70;;;1.80;;
61204;SDS011;47068;55.780;37.520;2023-06-24T15:48:02;4.13;;;1.90;;
61204;SDS011;47068;55.780;37.520;2023-06-24T15:50:28;7.50;;;2.00;;
61204;SDS011;47068;55.780;37.520;2023-06-24T15:55:19;3.85;;;1.98;;
61204;SDS011;47068;55.780;37.520;2023-06-24T16:00:11;4.22;;;1.60;;
61204;SDS011;47068;55.780;37.520;2023-06-24T16:02:37;5.47;;;1.88;;
61204;SDS011;47068;55.780;37.520;2023-06-24T16:05:02;3.85;;;1.85;;
61204;SDS011;47068;55.780;37.520;2023-06-24T16:07:30;5.60;;;2.70;;
61204;SDS011;47068;55.780;37.520;2023-06-24T16:09:56;7.13;;;1.92;;
61204;SDS011;47068;55.780;37.520;2023-06-24T16:14:47;3.85;;;2.10;;
61204;SDS011;47068;55.780;37.520;2023-06-24T16:19:38;3.78;;;1.90;;
61204;SDS011;47068;55.780;37.520;2023-06-24T16:22:05;4.18;;;1.90;;
61204;SDS011;47068;55.780;37.520;2023-06-24T16:26:55;4.97;;;1.88;;
61204;SDS011;47068;55.780;37.520;2023-06-24T16:29:21;3.92;;;1.88;;
61204;SDS011;47068;55.780;37.520;2023-06-24T16:34:12;3.88;;;1.88;;
61204;SDS011;47068;55.780;37.520;2023-06-24T16:39:03;5.13;;;2.25;;
61204;SDS011;47068;55.780;37.520;2023-06-24T16:41:30;3.72;;;1.77;;
61204;SDS011;47068;55.780;37.520;2023-06-24T16:43:56;3.80;;;1.90;;
61204;SDS011;47068;55.780;37.520;2023-06-24T16:46:22;3.95;;;1.90;;
61204;SDS011;47068;55.780;37.520;2023-06-24T16:48:48;5.22;;;2.25;;
61204;SDS011;47068;55.780;37.520;2023-06-24T16:53:39;4.50;;;2.03;;